Rick Husband Amarillo International Airport
KAMA : now visible

Airfield :











YOU CAN JOIN US ON...

 
LOGIN :

Register | Disclaimer

   EN    FR    IT 

 









Legend :    VFR   Marginal VFR   IFR   Intensive IFR   Very Intensive IFR
Visi :
Ceiling :
>= 8 km
>= 3000ft
5 to 8 km
1000 to 3000 ft
1500m to 5 km
500 to 1000 ft
800 to 1500m
200 to 500 ft
< 800m
< 200 ft
Symbols :   Thunderstorms  Fog  Heavy snow  Heavy precipitations  Wind > 20 kt






- Airport Elevation : 3607 ft
- IATA code : AMA


KAMA - Rick Husband Amarillo International

CURRENT METAR :
  • 030653Z AUTO 03009KT 10SM OVC100 23/17 A3009 RMK AO2 SLP125 T02280172

EXPIRED METARs :
  • 030553Z AUTO 01008KT 10SM OVC100 23/17 A3008 RMK AO2 SLP122 T02280172 10267 20228 403610194 51024
  • 030453Z 29005G17KT 10SM FEW075 OVC110 27/14 A3007 RMK AO2 SLP115 T02670144

TAF KAMA
Valid from the 03 at 06:00 until the 04 at 06:00 UTC


030540Z 0306/0406 03008KT P6SM VCSH FEW070 OVC110
FM030900 13007KT P6SM SCT110 BKN300
FM031300 17013KT P6SM SCT110
FM031800 17017KT P6SM SCT070
FM040200 17013KT P6SM BKN300
KZAB FIR / North America



MET'MAP, your aeronautical weather chart ! - Copyright ORBIFLY December 2007 - Disclaimer

ORBIFLY MET'MAP TEAM :

Programming & Development : Alexandra Zaïnal
Original concept : Baudouin d'Aumeries
Technical & hardware support : Manuel Goepfert
Assistance : Marc-Olivier Méhu




SOURCES & CREDITS :

   NOAA       Earth
Advisory